createdAt,value
2022-11-14T00:01:04.870Z,16.4
2022-11-14T00:06:06.908Z,17
2022-11-14T00:11:08.981Z,19
2022-11-14T00:16:11.187Z,17.7
2022-11-14T00:21:13.191Z,17.6
2022-11-14T00:26:15.179Z,17.3
2022-11-14T00:31:17.165Z,16.6
2022-11-14T00:36:19.292Z,16.5
2022-11-14T00:41:21.207Z,16.4
2022-11-14T00:46:23.126Z,15.9
2022-11-14T00:51:25.222Z,15.4
2022-11-14T00:56:27.246Z,15.4
2022-11-14T01:01:29.207Z,15.7
2022-11-14T01:06:31.257Z,14.6
2022-11-14T01:11:33.272Z,14
2022-11-14T01:16:35.266Z,14.7
2022-11-14T01:21:37.525Z,15.6
2022-11-14T01:26:39.595Z,14.7
2022-11-14T01:31:41.869Z,15.1
2022-11-14T01:36:43.914Z,15.7
2022-11-14T01:41:45.844Z,15
2022-11-14T01:46:47.867Z,15.1
2022-11-14T01:51:49.879Z,15.2
2022-11-14T01:56:51.812Z,15.7
2022-11-14T02:06:56.045Z,14.7
2022-11-14T02:11:58.281Z,14.7
2022-11-14T02:17:30.304Z,14.7
2022-11-14T02:22:02.789Z,14.6
2022-11-14T02:27:05.481Z,15.3
2022-11-14T02:32:11.740Z,15.4
2022-11-14T02:37:14.249Z,16.5
2022-11-14T02:42:16.306Z,15.7
2022-11-14T02:47:18.499Z,15.6
2022-11-14T02:52:20.739Z,16.4
2022-11-14T02:57:22.756Z,16.9
2022-11-14T03:02:25.908Z,17.1
2022-11-14T03:07:28.036Z,16.8
2022-11-14T03:12:30.581Z,16.5
2022-11-14T03:17:32.740Z,17.7
2022-11-14T03:22:34.865Z,16.6
2022-11-14T03:27:36.924Z,16
2022-11-14T03:32:39.488Z,15.7
2022-11-14T03:37:41.894Z,15.6
2022-11-14T03:42:43.943Z,16.2
2022-11-14T03:47:46.235Z,15.7
2022-11-14T03:52:48.413Z,15.1
2022-11-14T03:57:50.409Z,15
2022-11-14T04:02:52.521Z,14.7
2022-11-14T04:07:54.482Z,14.4
2022-11-14T04:12:56.728Z,13.8
2022-11-14T04:17:58.956Z,14
2022-11-14T04:23:01.512Z,13.8
2022-11-14T04:28:03.536Z,14
2022-11-14T04:33:05.558Z,13.8
2022-11-14T04:38:07.690Z,13.2
2022-11-14T04:43:09.710Z,13.3
2022-11-14T04:48:11.700Z,13.4
2022-11-14T04:53:13.733Z,13.4
2022-11-14T04:58:15.714Z,13.8
2022-11-14T05:03:17.699Z,36.1
2022-11-14T05:08:19.779Z,14.5
2022-11-14T05:13:21.826Z,14.1
2022-11-14T05:18:23.803Z,13.9
2022-11-14T05:23:26.060Z,14.1
2022-11-14T05:28:28.622Z,14.3
2022-11-14T05:33:32.097Z,14.5
2022-11-14T05:38:34.179Z,14.3
2022-11-14T05:43:36.174Z,14.6
2022-11-14T05:48:38.169Z,14.5
2022-11-14T05:53:40.274Z,15.4
2022-11-14T05:58:42.287Z,14.8
2022-11-14T06:03:44.404Z,15.2
2022-11-14T06:08:46.345Z,15.5
2022-11-14T06:13:48.368Z,15.4
2022-11-14T06:18:50.475Z,15.8
2022-11-14T06:23:52.468Z,16.1
2022-11-14T06:28:54.748Z,16
2022-11-14T06:33:56.925Z,20.1
2022-11-14T06:38:59.266Z,16.9
2022-11-14T06:44:01.159Z,15.7
2022-11-14T06:49:03.356Z,16.4
2022-11-14T06:54:05.283Z,17.1
2022-11-14T06:59:07.331Z,16.9
2022-11-14T07:04:09.460Z,15.7
2022-11-14T07:09:11.771Z,16.1
2022-11-14T07:14:13.767Z,15.3
2022-11-14T07:19:15.814Z,14.9
2022-11-14T07:24:17.954Z,13.8
2022-11-14T07:29:20.087Z,13.9
2022-11-14T07:34:22.271Z,13.6
2022-11-14T07:39:24.775Z,12.1
2022-11-14T07:44:26.908Z,13.3
2022-11-14T07:49:28.873Z,13.2
2022-11-14T07:54:30.797Z,13.1
2022-11-14T07:59:32.812Z,12.9
2022-11-14T08:04:34.891Z,13.3
2022-11-14T08:09:37.215Z,13.2
2022-11-14T08:14:39.511Z,12.9
2022-11-14T08:19:41.777Z,13.4
2022-11-14T08:24:43.764Z,12.2
2022-11-14T08:29:45.781Z,12.5
2022-11-14T08:34:48.141Z,13
2022-11-14T08:39:50.562Z,12.2
2022-11-14T08:44:53.447Z,11.7
2022-11-14T08:49:56.047Z,11.9
2022-11-14T08:54:58.299Z,12
2022-11-14T09:00:00.355Z,11.7
2022-11-14T09:05:02.472Z,11.8
2022-11-14T09:10:04.827Z,11.6
2022-11-14T09:15:07.058Z,11.9
2022-11-14T09:20:09.357Z,11.5
2022-11-14T09:25:11.532Z,11.7
2022-11-14T09:30:13.552Z,10.8
2022-11-14T09:35:16.039Z,10.7
2022-11-14T09:40:18.886Z,11.8
2022-11-14T09:45:21.304Z,11.3
2022-11-14T09:50:27.074Z,11.2
2022-11-14T09:55:37.324Z,10.5
2022-11-14T10:00:29.844Z,10.9
2022-11-14T10:05:31.783Z,11.1
2022-11-14T10:10:39.358Z,11.6
2022-11-14T10:15:41.699Z,11.8
2022-11-14T10:20:44.115Z,12.2
2022-11-14T10:25:46.385Z,12.2
2022-11-14T10:30:48.299Z,11.9
2022-11-14T10:35:51.243Z,12.2
2022-11-14T10:40:53.382Z,11.8
2022-11-14T10:45:55.406Z,12.2
2022-11-14T10:50:57.854Z,12.2
2022-11-14T11:01:09.846Z,13.9
2022-11-14T11:06:13.364Z,12.4
2022-11-14T11:11:15.467Z,12.7
2022-11-14T11:16:17.569Z,14.2
2022-11-14T11:21:19.601Z,15
2022-11-14T11:26:21.792Z,13.8
2022-11-14T11:31:23.701Z,13.3
2022-11-14T11:36:25.643Z,13.3
2022-11-14T11:42:09.986Z,13
2022-11-14T11:46:32.717Z,13.8
2022-11-14T11:51:34.982Z,12.5
2022-11-14T11:56:40.454Z,13.5
2022-11-14T12:01:44.137Z,13.1
2022-11-14T12:06:46.282Z,13.5
2022-11-14T12:11:48.933Z,13.6
2022-11-14T12:16:53.375Z,13.6
2022-11-14T12:21:59.686Z,14.9
2022-11-14T12:27:01.738Z,14.8
2022-11-14T12:32:03.753Z,14.4
2022-11-14T12:37:05.843Z,13.4
2022-11-14T12:47:11.114Z,13.9
2022-11-14T12:52:13.736Z,14.2
2022-11-14T12:57:15.774Z,14.8
2022-11-14T13:02:23.519Z,15.4
2022-11-14T13:07:33.997Z,15.2
2022-11-14T13:12:26.747Z,14.2
2022-11-14T13:17:28.874Z,14.3
2022-11-14T13:22:30.921Z,14
2022-11-14T13:28:07.439Z,14.2
2022-11-14T13:32:35.549Z,16.7
2022-11-14T13:37:37.531Z,16.6
2022-11-14T13:42:39.880Z,16.6
2022-11-14T13:47:44.923Z,16.1
2022-11-14T13:52:47.290Z,16.4
2022-11-14T13:57:49.463Z,16.9
2022-11-14T14:02:51.432Z,15.9
2022-11-14T14:07:53.512Z,17
2022-11-14T14:12:55.531Z,16.3
2022-11-14T14:17:57.806Z,16.9
2022-11-14T14:22:59.930Z,15.2
2022-11-14T14:28:01.885Z,16.1
2022-11-14T14:33:03.884Z,16.4
2022-11-14T14:38:05.951Z,16.9
2022-11-14T14:43:08.344Z,18.6
2022-11-14T14:48:10.397Z,18.2
2022-11-14T14:53:12.971Z,18.7
2022-11-14T14:58:22.519Z,18.1
2022-11-14T15:03:24.231Z,20.5
2022-11-14T15:08:26.497Z,19.4
2022-11-14T15:13:30.338Z,21.3
2022-11-14T15:18:35.273Z,21.2
2022-11-14T15:23:38.333Z,21.8
2022-11-14T15:28:40.707Z,23.3
2022-11-14T15:33:45.971Z,27.5
2022-11-14T15:38:48.790Z,23.2
2022-11-14T15:43:51.319Z,24.1
2022-11-14T15:48:53.367Z,26.5
2022-11-14T15:53:55.845Z,27.3
2022-11-14T15:58:57.975Z,26.1
2022-11-14T16:04:00.954Z,30
2022-11-14T16:09:09.010Z,29.6
2022-11-14T16:14:11.163Z,30
2022-11-14T16:19:13.613Z,31.4
2022-11-14T16:24:15.879Z,31
2022-11-14T16:29:19.179Z,30
2022-11-14T16:34:21.585Z,32.1
2022-11-14T16:39:23.940Z,31.1
2022-11-14T16:44:26.305Z,34.7
2022-11-14T16:49:28.676Z,37.3
2022-11-14T16:54:30.900Z,35.3
2022-11-14T16:59:33.015Z,35.3
2022-11-14T17:04:35.078Z,36.6
2022-11-14T17:09:37.357Z,35.6
2022-11-14T17:14:39.774Z,33.9
2022-11-14T17:19:42.848Z,33.1
2022-11-14T17:24:45.347Z,34.6
2022-11-14T17:29:47.590Z,35.7
2022-11-14T17:34:49.603Z,34.2
2022-11-14T17:39:52.096Z,32
2022-11-14T17:44:54.225Z,28.7
2022-11-14T17:49:56.159Z,28.3
2022-11-14T17:54:58.348Z,28.7
2022-11-14T18:00:00.434Z,26.1
2022-11-14T18:05:02.694Z,24.9
2022-11-14T18:10:04.735Z,23.9
2022-11-14T18:15:06.763Z,24.2
2022-11-14T18:20:09.047Z,23.9
2022-11-14T18:25:11.058Z,27.4
2022-11-14T18:35:13.575Z,25.6
2022-11-14T18:40:17.710Z,24.8
2022-11-14T18:45:20.025Z,24.3
2022-11-14T18:50:22.124Z,25.1
2022-11-14T18:55:24.139Z,23.7
2022-11-14T19:00:26.460Z,22.9
2022-11-14T19:05:28.691Z,22.7
2022-11-14T19:10:30.810Z,23.3
2022-11-14T19:15:32.806Z,23.7
2022-11-14T19:20:34.734Z,23.3
2022-11-14T19:25:38.958Z,24.5
2022-11-14T19:30:41.251Z,25.7
2022-11-14T19:35:43.373Z,21.4
2022-11-14T19:40:45.372Z,25.1
2022-11-14T19:45:47.738Z,22.3
2022-11-14T19:50:49.862Z,22.4
2022-11-14T19:55:52.418Z,24.3
2022-11-14T20:00:55.425Z,23.2
2022-11-14T20:05:57.742Z,23.7
2022-11-14T20:11:00.328Z,23.9
2022-11-14T20:16:02.891Z,22.1
2022-11-14T20:21:05.172Z,22.3
2022-11-14T20:26:13.296Z,23
2022-11-14T20:31:15.569Z,24.3
2022-11-14T20:36:17.555Z,24.3
2022-11-14T20:41:19.540Z,22.2
2022-11-14T20:46:21.930Z,22.3
2022-11-14T20:51:24.437Z,21.6
2022-11-14T20:56:26.703Z,20.4
2022-11-14T21:01:28.706Z,21.7
2022-11-14T21:06:31.032Z,21.3
2022-11-14T21:11:33.191Z,21
2022-11-14T21:16:35.422Z,20.5
2022-11-14T21:21:37.364Z,20.3
2022-11-14T21:26:39.392Z,21.4
2022-11-14T21:31:41.421Z,21.4
2022-11-14T21:36:47.456Z,19.7
2022-11-14T21:41:50.448Z,19.3
2022-11-14T21:46:52.758Z,20.3
2022-11-14T21:51:54.712Z,20.4
2022-11-14T21:56:56.781Z,20
2022-11-14T22:01:59.033Z,19.9
2022-11-14T22:07:01.627Z,19.3
2022-11-14T22:12:04.152Z,22.8
2022-11-14T22:17:06.446Z,20.2
2022-11-14T22:22:08.829Z,19.9
2022-11-14T22:27:10.988Z,19.3
2022-11-14T22:32:12.986Z,18.9
2022-11-14T22:37:15.031Z,19.8
2022-11-14T22:42:17.229Z,19.9
2022-11-14T22:47:19.823Z,18.9
2022-11-14T22:52:21.870Z,19
2022-11-14T22:57:23.975Z,18.9
2022-11-14T23:02:26.018Z,19.6
2022-11-14T23:07:28.216Z,18.9
2022-11-14T23:12:30.426Z,18.6
2022-11-14T23:17:32.453Z,18.5
2022-11-14T23:22:34.405Z,20.1
2022-11-14T23:27:36.519Z,19.4
2022-11-14T23:32:38.786Z,18.6
2022-11-14T23:37:40.748Z,19.3
2022-11-14T23:42:43.022Z,19.2
2022-11-14T23:47:45.273Z,57.3
2022-11-14T23:52:47.243Z,19.8
2022-11-14T23:57:49.790Z,18.4
